createdAt,value
2017-03-24T00:00:54.205Z,7.83
2017-03-24T00:03:47.209Z,7.81
2017-03-24T00:06:40.422Z,7.79
2017-03-24T00:09:33.562Z,7.78
2017-03-24T00:15:20.086Z,7.70
2017-03-24T00:18:13.360Z,7.59
2017-03-24T00:21:06.554Z,7.44
2017-03-24T00:26:52.896Z,7.13
2017-03-24T00:32:39.063Z,6.87
2017-03-24T00:38:25.381Z,6.65
2017-03-24T00:41:18.584Z,6.56
2017-03-24T00:47:04.760Z,6.39
2017-03-24T00:49:58.379Z,6.32
2017-03-24T00:52:51.725Z,6.22
2017-03-24T00:55:44.886Z,6.15
2017-03-24T00:58:38.044Z,6.07
2017-03-24T01:01:31.255Z,6.01
2017-03-24T01:04:24.576Z,5.96
2017-03-24T01:07:17.903Z,5.92
2017-03-24T01:10:11.295Z,5.89
2017-03-24T01:13:04.631Z,5.85
2017-03-24T01:15:58.231Z,5.83
2017-03-24T01:18:51.506Z,5.75
2017-03-24T01:21:44.856Z,5.71
2017-03-24T01:24:38.513Z,5.65
2017-03-24T01:27:32.227Z,5.58
2017-03-24T01:30:26.074Z,5.51
2017-03-24T01:36:13.576Z,5.40
2017-03-24T01:39:07.853Z,5.36
2017-03-24T01:42:01.655Z,5.32
2017-03-24T01:44:55.300Z,5.26
2017-03-24T01:47:48.896Z,5.19
2017-03-24T01:50:42.482Z,5.14
2017-03-24T01:53:35.981Z,5.10
2017-03-24T01:59:22.773Z,5.01
2017-03-24T02:02:16.153Z,4.97
2017-03-24T02:05:09.476Z,4.93
2017-03-24T02:08:03.138Z,4.92
2017-03-24T02:10:57.759Z,4.91
2017-03-24T02:16:44.187Z,4.88
2017-03-24T02:19:37.880Z,4.87
2017-03-24T02:22:31.599Z,4.83
2017-03-24T02:25:25.384Z,4.86
2017-03-24T02:31:13.057Z,4.82
2017-03-24T02:37:00.474Z,4.76
2017-03-24T02:42:47.821Z,4.69
2017-03-24T02:48:35.224Z,4.62
2017-03-24T02:51:29.040Z,4.58
2017-03-24T02:54:22.905Z,4.53
2017-03-24T02:57:17.039Z,4.49
2017-03-24T03:00:10.838Z,4.47
2017-03-24T03:03:04.371Z,4.44
2017-03-24T03:05:57.819Z,4.40
2017-03-24T03:08:51.356Z,4.35
2017-03-24T03:11:44.830Z,4.31
2017-03-24T03:14:38.316Z,4.28
2017-03-24T03:17:31.754Z,4.29
2017-03-24T03:23:18.754Z,4.26
2017-03-24T03:26:12.181Z,4.24
2017-03-24T03:29:05.697Z,4.23
2017-03-24T03:31:59.097Z,4.23
2017-03-24T03:34:52.462Z,4.21
2017-03-24T03:37:45.924Z,4.18
2017-03-24T03:40:39.539Z,4.16
2017-03-24T03:43:33.058Z,4.18
2017-03-24T03:49:20.599Z,4.15
2017-03-24T03:52:14.386Z,4.12
2017-03-24T03:55:07.838Z,4.09
2017-03-24T03:58:01.305Z,4.06
2017-03-24T04:06:41.711Z,3.97
2017-03-24T04:09:35.224Z,3.93
2017-03-24T04:15:23.401Z,3.85
2017-03-24T04:18:15.737Z,3.81
2017-03-24T04:21:09.188Z,3.77
2017-03-24T04:29:49.683Z,3.64
2017-03-24T04:32:43.141Z,3.61
2017-03-24T04:38:30.188Z,3.53
2017-03-24T04:41:23.495Z,3.48
2017-03-24T04:44:17.859Z,3.44
2017-03-24T04:47:10.400Z,3.39
2017-03-24T04:52:57.237Z,3.29
2017-03-24T04:55:50.718Z,3.24
2017-03-24T04:58:44.049Z,3.22
2017-03-24T05:01:37.452Z,3.21
2017-03-24T05:04:30.817Z,3.19
2017-03-24T05:10:17.649Z,3.17
2017-03-24T05:13:12.078Z,3.19
2017-03-24T05:18:57.830Z,3.23
2017-03-24T05:21:51.222Z,3.27
2017-03-24T05:24:44.558Z,3.60
2017-03-24T05:30:31.479Z,5.06
2017-03-24T05:36:18.595Z,4.84
2017-03-24T05:42:05.786Z,4.82
2017-03-24T05:44:59.418Z,5.05
2017-03-24T05:47:54.045Z,5.47
2017-03-24T05:50:46.635Z,6.34
2017-03-24T05:53:40.306Z,7.05
2017-03-24T05:56:34.041Z,7.47
2017-03-24T05:59:27.677Z,7.27
2017-03-24T06:02:21.478Z,7.14
2017-03-24T06:05:15.116Z,6.94
2017-03-24T06:08:08.835Z,6.77
2017-03-24T06:11:02.478Z,6.75
2017-03-24T06:13:56.296Z,7.13
2017-03-24T06:16:50.212Z,7.50
2017-03-24T06:19:44.034Z,7.93
2017-03-24T06:22:37.978Z,8.33
2017-03-24T06:28:25.701Z,8.80
2017-03-24T06:31:19.618Z,9.52
2017-03-24T06:37:07.886Z,11.31
2017-03-24T06:40:02.096Z,12.58
2017-03-24T06:42:56.609Z,14.07
2017-03-24T06:45:51.067Z,15.65
2017-03-24T06:48:45.689Z,16.84
2017-03-24T06:51:40.314Z,17.85
2017-03-24T06:54:34.827Z,18.45
2017-03-24T06:57:29.274Z,18.99
2017-03-24T07:00:23.737Z,19.63
2017-03-24T07:03:18.341Z,20.03
2017-03-24T07:06:12.847Z,20.71
2017-03-24T07:09:07.447Z,21.16
2017-03-24T07:12:01.994Z,20.90
2017-03-24T07:14:56.401Z,20.06
2017-03-24T07:20:44.817Z,18.90
2017-03-24T07:23:39.110Z,18.68
2017-03-24T07:26:33.514Z,18.52
2017-03-24T07:32:22.136Z,18.26
2017-03-24T07:35:16.406Z,18.24
2017-03-24T07:38:10.721Z,18.24
2017-03-24T07:41:04.979Z,18.31
2017-03-24T07:43:59.524Z,18.67
2017-03-24T07:46:53.908Z,18.92
2017-03-24T07:49:48.337Z,18.99
2017-03-24T07:52:42.871Z,19.48
2017-03-24T07:55:37.403Z,20.04
2017-03-24T07:58:32.010Z,20.63
2017-03-24T08:01:26.706Z,21.19
2017-03-24T08:04:21.185Z,21.61
2017-03-24T08:07:15.742Z,22.06
2017-03-24T08:10:10.303Z,23.02
2017-03-24T08:13:05.874Z,23.63
2017-03-24T08:16:01.285Z,24.49
2017-03-24T08:18:57.274Z,25.42
2017-03-24T08:21:53.101Z,26.32
2017-03-24T08:24:48.845Z,26.97
2017-03-24T08:30:38.806Z,27.81
2017-03-24T08:33:33.989Z,27.99
2017-03-24T08:36:29.080Z,27.71
2017-03-24T08:39:24.128Z,28.05
2017-03-24T08:42:19.801Z,28.39
2017-03-24T08:45:15.627Z,28.27
2017-03-24T08:48:11.091Z,27.77
2017-03-24T08:51:06.756Z,27.81
2017-03-24T08:54:02.242Z,28.72
2017-03-24T08:56:57.798Z,29.47
2017-03-24T08:59:53.279Z,30.29
2017-03-24T09:02:48.732Z,30.39
2017-03-24T09:05:44.085Z,31.07
2017-03-24T09:08:39.396Z,31.85
2017-03-24T09:11:34.259Z,33.12
2017-03-24T09:14:29.572Z,34.41
2017-03-24T09:17:24.799Z,35.39
2017-03-24T09:20:19.879Z,36.20
2017-03-24T09:23:15.105Z,36.87
2017-03-24T09:26:10.201Z,37.56
2017-03-24T09:29:05.269Z,37.03
2017-03-24T09:32:00.174Z,36.72
2017-03-24T09:34:55.397Z,36.44
2017-03-24T09:37:50.489Z,36.80
2017-03-24T09:40:45.660Z,37.32
2017-03-24T09:43:40.563Z,37.56
2017-03-24T09:46:35.288Z,36.76
2017-03-24T09:49:29.813Z,35.54
2017-03-24T09:52:24.172Z,34.17
2017-03-24T09:55:18.754Z,31.69
2017-03-24T09:58:12.784Z,30.90
2017-03-24T10:01:07.178Z,30.18
2017-03-24T10:04:02.345Z,30.79
2017-03-24T10:06:57.347Z,31.85
2017-03-24T10:09:52.105Z,32.16
2017-03-24T10:12:47.151Z,31.10
2017-03-24T10:15:42.223Z,31.55
2017-03-24T10:18:37.486Z,33.17
2017-03-24T10:21:32.992Z,34.17
2017-03-24T10:24:28.086Z,34.40
2017-03-24T10:27:22.366Z,33.60
2017-03-24T10:30:15.814Z,30.31
2017-03-24T10:33:09.472Z,26.74
2017-03-24T10:36:03.306Z,24.02
2017-03-24T10:38:57.847Z,22.02
2017-03-24T10:41:52.910Z,20.70
2017-03-24T10:44:48.061Z,19.82
2017-03-24T10:47:43.179Z,18.97
2017-03-24T10:50:38.459Z,18.40
2017-03-24T10:56:28.456Z,17.15
2017-03-24T10:59:23.684Z,16.85
2017-03-24T11:02:18.694Z,16.59
2017-03-24T11:05:13.815Z,16.33
2017-03-24T11:08:08.804Z,15.93
2017-03-24T11:11:03.749Z,15.78
2017-03-24T11:13:58.639Z,15.63
2017-03-24T11:19:48.123Z,15.21
2017-03-24T11:22:42.658Z,15.13
2017-03-24T11:25:36.975Z,14.90
2017-03-24T11:28:31.466Z,14.72
2017-03-24T11:31:26.064Z,14.67
2017-03-24T11:34:20.593Z,14.58
2017-03-24T11:37:15.160Z,14.44
2017-03-24T11:40:09.539Z,14.17
2017-03-24T11:45:58.369Z,13.87
2017-03-24T11:48:52.705Z,13.97
2017-03-24T11:51:47.190Z,14.04
2017-03-24T11:54:41.544Z,14.05
2017-03-24T11:57:35.918Z,13.98
2017-03-24T12:00:30.276Z,13.97
2017-03-24T12:03:24.646Z,13.86
2017-03-24T12:06:19.015Z,13.74
2017-03-24T12:09:13.452Z,13.67
2017-03-24T12:12:07.928Z,13.70
2017-03-24T12:15:02.324Z,13.78
2017-03-24T12:17:56.719Z,13.86
2017-03-24T12:20:50.956Z,13.92
2017-03-24T12:23:45.134Z,13.96
2017-03-24T12:26:39.385Z,13.98
2017-03-24T12:29:33.599Z,14.00
2017-03-24T12:32:27.890Z,13.94
2017-03-24T12:35:22.008Z,13.86
2017-03-24T12:38:16.247Z,13.84
2017-03-24T12:44:04.593Z,13.76
2017-03-24T12:46:58.712Z,13.79
2017-03-24T12:49:52.924Z,13.84
2017-03-24T12:52:46.841Z,13.86
2017-03-24T12:55:40.801Z,13.86
2017-03-24T12:58:34.700Z,13.88
2017-03-24T13:01:28.692Z,13.87
2017-03-24T13:04:22.706Z,13.91
2017-03-24T13:07:16.526Z,13.90
2017-03-24T13:10:10.457Z,13.92
2017-03-24T13:13:04.396Z,13.92
2017-03-24T13:15:58.196Z,13.88
2017-03-24T13:18:52.087Z,13.86
2017-03-24T13:21:46.005Z,13.91
2017-03-24T13:24:40.001Z,13.95
2017-03-24T13:27:33.845Z,14.01
2017-03-24T13:30:27.713Z,14.07
2017-03-24T13:33:21.642Z,14.09
2017-03-24T13:36:15.446Z,14.11
2017-03-24T13:39:09.341Z,14.10
2017-03-24T13:42:03.206Z,14.10
2017-03-24T13:44:57.081Z,14.11
2017-03-24T13:47:50.967Z,14.12
2017-03-24T13:50:44.626Z,14.13
2017-03-24T13:53:38.385Z,14.13
2017-03-24T13:56:32.080Z,14.11
2017-03-24T14:02:19.433Z,14.06
2017-03-24T14:05:13.074Z,14.06
2017-03-24T14:08:06.611Z,14.01
2017-03-24T14:11:00.211Z,14.01
2017-03-24T14:13:53.809Z,14.10
2017-03-24T14:16:47.418Z,14.19
2017-03-24T14:19:41.099Z,14.18
2017-03-24T14:22:34.765Z,14.16
2017-03-24T14:25:28.453Z,14.10
2017-03-24T14:28:21.983Z,14.02
2017-03-24T14:31:15.671Z,14.02
2017-03-24T14:34:09.379Z,14.06
2017-03-24T14:37:03.132Z,14.10
2017-03-24T14:39:56.742Z,14.15
2017-03-24T14:42:50.375Z,14.18
2017-03-24T14:45:44.173Z,14.20
2017-03-24T14:48:37.871Z,14.21
2017-03-24T14:51:31.565Z,14.21
2017-03-24T14:54:25.208Z,14.21
2017-03-24T14:57:18.895Z,14.16
2017-03-24T15:00:12.432Z,14.11
2017-03-24T15:03:05.938Z,14.08
2017-03-24T15:05:59.728Z,14.07
2017-03-24T15:08:53.328Z,14.07
2017-03-24T15:11:46.935Z,14.07
2017-03-24T15:14:40.506Z,14.05
2017-03-24T15:17:34.248Z,14.00
2017-03-24T15:20:27.879Z,13.97
2017-03-24T15:23:21.405Z,13.94
2017-03-24T15:26:14.911Z,13.92
2017-03-24T15:29:08.452Z,13.89
2017-03-24T15:34:55.760Z,13.84
2017-03-24T15:37:49.329Z,13.82
2017-03-24T15:40:42.793Z,13.82
2017-03-24T15:43:36.398Z,13.80
2017-03-24T15:46:30.026Z,13.79
2017-03-24T15:49:23.534Z,13.79
2017-03-24T15:52:16.921Z,13.77
2017-03-24T15:55:10.454Z,13.75
2017-03-24T15:58:03.960Z,13.72
2017-03-24T16:00:57.433Z,13.70
2017-03-24T16:03:50.793Z,13.67
2017-03-24T16:06:44.215Z,13.63
2017-03-24T16:09:37.655Z,13.60
2017-03-24T16:12:31.017Z,13.54
2017-03-24T16:18:17.763Z,13.44
2017-03-24T16:21:11.089Z,13.41
2017-03-24T16:24:04.341Z,13.35
2017-03-24T16:26:57.486Z,13.29
2017-03-24T16:29:50.696Z,13.22
2017-03-24T16:32:44.113Z,13.17
2017-03-24T16:35:37.298Z,13.11
2017-03-24T16:38:30.669Z,13.04
2017-03-24T16:41:24.059Z,12.95
2017-03-24T16:47:10.960Z,12.84
2017-03-24T16:50:04.523Z,12.76
2017-03-24T16:52:57.915Z,12.69
2017-03-24T16:55:51.273Z,12.62
2017-03-24T16:58:44.695Z,12.54
2017-03-24T17:01:38.123Z,12.45
2017-03-24T17:07:25.061Z,12.24
2017-03-24T17:10:18.547Z,12.12
2017-03-24T17:13:11.816Z,12.02
2017-03-24T17:16:05.014Z,11.94
2017-03-24T17:18:58.311Z,11.82
2017-03-24T17:21:51.556Z,11.72
2017-03-24T17:24:45.090Z,11.63
2017-03-24T17:27:38.400Z,11.56
2017-03-24T17:30:31.798Z,11.48
2017-03-24T17:33:25.138Z,11.39
2017-03-24T17:36:18.538Z,11.29
2017-03-24T17:39:11.785Z,11.20
2017-03-24T17:42:04.951Z,11.11
2017-03-24T17:44:58.370Z,11.05
2017-03-24T17:50:45.138Z,10.91
2017-03-24T17:53:39.031Z,10.82
2017-03-24T17:56:32.087Z,10.75
2017-03-24T17:59:25.650Z,10.66
2017-03-24T18:02:19.464Z,10.58
2017-03-24T18:05:12.565Z,10.51
2017-03-24T18:08:05.803Z,10.45
2017-03-24T18:10:58.922Z,10.41
2017-03-24T18:13:52.125Z,10.36
2017-03-24T18:16:45.211Z,10.35
2017-03-24T18:19:38.318Z,10.36
2017-03-24T18:22:31.316Z,10.35
2017-03-24T18:28:17.499Z,10.29
2017-03-24T18:31:10.658Z,10.28
2017-03-24T18:34:03.760Z,10.23
2017-03-24T18:36:56.763Z,10.20
2017-03-24T18:39:49.808Z,10.15
2017-03-24T18:45:36.228Z,10.04
2017-03-24T18:48:29.492Z,9.97
2017-03-24T18:51:22.756Z,9.91
2017-03-24T18:54:15.988Z,9.83
2017-03-24T18:57:08.872Z,9.76
2017-03-24T19:00:02.086Z,9.70
2017-03-24T19:05:48.005Z,9.57
2017-03-24T19:08:40.971Z,9.52
2017-03-24T19:11:34.035Z,9.45
2017-03-24T19:14:26.907Z,9.41
2017-03-24T19:17:19.705Z,9.36
2017-03-24T19:20:12.656Z,9.29
2017-03-24T19:23:05.352Z,9.21
2017-03-24T19:28:51.643Z,9.04
2017-03-24T19:31:45.298Z,8.97
2017-03-24T19:34:38.578Z,8.90
2017-03-24T19:40:25.944Z,8.83
2017-03-24T19:43:19.397Z,8.78
2017-03-24T19:49:06.473Z,8.71
2017-03-24T19:54:54.188Z,8.60
2017-03-24T19:57:47.927Z,8.57
2017-03-24T20:00:41.788Z,8.52
2017-03-24T20:03:35.326Z,8.46
2017-03-24T20:12:16.651Z,8.25
2017-03-24T20:15:10.430Z,8.21
2017-03-24T20:20:57.983Z,8.12
2017-03-24T20:23:51.778Z,8.09
2017-03-24T20:29:39.249Z,8.01
2017-03-24T20:32:33.186Z,7.99
2017-03-24T20:35:26.991Z,7.95
2017-03-24T20:38:20.787Z,7.94
2017-03-24T20:44:08.226Z,7.91
2017-03-24T20:49:55.601Z,7.92
2017-03-24T20:52:49.289Z,7.96
2017-03-24T20:55:43.119Z,8.00
2017-03-24T20:58:36.969Z,8.05
2017-03-24T21:01:30.708Z,8.06
2017-03-24T21:07:18.803Z,8.07
2017-03-24T21:10:12.729Z,8.04
2017-03-24T21:13:06.777Z,8.02
2017-03-24T21:21:48.712Z,7.84
2017-03-24T21:24:42.693Z,7.79
2017-03-24T21:36:18.784Z,7.61
2017-03-24T21:39:12.730Z,7.56
2017-03-24T21:45:00.797Z,7.43
2017-03-24T21:47:54.674Z,7.38
2017-03-24T21:50:48.582Z,7.36
2017-03-24T21:56:36.274Z,7.33
2017-03-24T21:59:29.959Z,7.32
2017-03-24T22:02:23.808Z,7.31
2017-03-24T22:05:17.604Z,7.29
2017-03-24T22:08:11.262Z,7.24
2017-03-24T22:11:04.950Z,7.17
2017-03-24T22:13:58.772Z,7.12
2017-03-24T22:16:52.703Z,7.06
2017-03-24T22:19:46.514Z,7.02
2017-03-24T22:22:40.287Z,6.97
2017-03-24T22:25:34.002Z,6.91
2017-03-24T22:28:27.927Z,6.81
2017-03-24T22:34:15.419Z,6.65
2017-03-24T22:37:09.236Z,6.55
2017-03-24T22:40:02.990Z,6.45
2017-03-24T22:42:56.837Z,6.37
2017-03-24T22:45:50.819Z,6.32
2017-03-24T22:48:44.640Z,6.25
2017-03-24T22:54:32.919Z,6.16
2017-03-24T23:00:20.681Z,6.08
2017-03-24T23:09:02.267Z,5.96
2017-03-24T23:14:49.997Z,5.86
2017-03-24T23:17:44.143Z,5.76
2017-03-24T23:20:37.814Z,5.67
2017-03-24T23:23:31.540Z,5.60
2017-03-24T23:26:25.253Z,5.53
2017-03-24T23:29:19.042Z,5.48
2017-03-24T23:32:12.877Z,5.43
2017-03-24T23:35:06.792Z,5.40
2017-03-24T23:40:54.669Z,5.39
2017-03-24T23:43:48.488Z,5.37
2017-03-24T23:46:42.569Z,5.34
2017-03-24T23:52:30.246Z,5.29
